Bookmark and Share
Track history (hours):
 

APL New Jersey

Last reported at 2014-Apr-15 06:31 UTC. Time now 2014-Apr-21 10:14 UTC.
Position N 36°09' W 126°41'.

Length 293 m; draft 13.4 m.

Type: Ship. MMSI: 636013522.

NotesDate/timePositionNaut miles runAvg speedWind from/ knotsBaromVisibWave heightAir tempDewpointWater temp
2014-Apr-15 06:31N 36°09' W 126°41'8116.3
2014-Apr-15 01:34N 35°31' W 125°13'1716.4
2014-Apr-15 00:31N 35°23' W 124°54'3216.2
2014-Apr-14 22:34N 35°09' W 124°19'1716.6
2014-Apr-14 21:33N 35°02' W 124°01'1716.6
2014-Apr-14 20:33N 34°55' W 123°43'1616.4
2014-Apr-14 19:34N 34°47' W 123°25'1616.4
2014-Apr-14 18:34N 34°40' W 123°07'6816.8
2014-Apr-14 14:33N 34°09' W 121°54'183 5.9
2014-Apr-13 07:24N 33°44' W 118°15'0 0.0
2014-Apr-13 06:33N 33°44' W 118°15'0 0.0
2014-Apr-13 05:33N 33°44' W 118°15'0 0.0
2014-Apr-13 04:21N 33°44' W 118°15'0 0.0
2014-Apr-13 03:33N 33°44' W 118°15'0 0.0
2014-Apr-12 23:18N 33°44' W 118°15'28 7.6
2014-Apr-12 19:33N 33°18' W 118°01'1010.2
2014-Apr-12 18:33N 33°09' W 117°56'1414.5
2014-Apr-12 17:33N 32°55' W 117°52'1918.9
2014-Apr-12 16:33N 32°36' W 117°49'2019.6
2014-Apr-12 15:33N 32°17' W 117°42'21319.3
2014-Apr-12 04:33N 28°53' W 116°36'4419.4
2014-Apr-12 02:17N 28°11' W 116°20'2514.7
2014-Apr-12 00:34N 27°48' W 116°08'2020.3
2014-Apr-11 23:34N 27°32' W 115°54'2020.4
2014-Apr-11 22:34N 27°16' W 115°40'6020.1
2014-Apr-11 19:34N 26°30' W 114°56'56120.0
2014-Apr-10 15:33N 20°13' W 107°24'  
2014-Apr-05 06:33N 32°10' W 117°42'  

Dump ship's entire track history

sailing weather and tide predictions

APL New Jersey — A8NM6 — position and weather